sensor_id;sensor_type;location;lat;lon;timestamp;P1;durP1;ratioP1;P2;durP2;ratioP2
64342;SDS011;50675;53.530;-6.312;2023-05-10T00:00:06;5.50;;;1.92;;
64342;SDS011;50675;53.530;-6.312;2023-05-10T00:02:57;8.25;;;2.60;;
64342;SDS011;50675;53.530;-6.312;2023-05-10T00:06:02;11.30;;;2.50;;
64342;SDS011;50675;53.530;-6.312;2023-05-10T00:27:27;4.95;;;1.83;;
64342;SDS011;50675;53.530;-6.312;2023-05-10T00:30:40;8.15;;;2.15;;
64342;SDS011;50675;53.530;-6.312;2023-05-10T00:33:59;6.60;;;2.35;;
64342;SDS011;50675;53.530;-6.312;2023-05-10T00:37:06;6.72;;;2.47;;
64342;SDS011;50675;53.530;-6.312;2023-05-10T00:43:30;11.32;;;2.65;;
64342;SDS011;50675;53.530;-6.312;2023-05-10T00:46:19;9.38;;;2.40;;
64342;SDS011;50675;53.530;-6.312;2023-05-10T00:49:21;7.93;;;2.28;;
64342;SDS011;50675;53.530;-6.312;2023-05-10T00:52:30;11.20;;;3.30;;
64342;SDS011;50675;53.530;-6.312;2023-05-10T00:54:57;8.68;;;2.30;;
64342;SDS011;50675;53.530;-6.312;2023-05-10T00:57:24;9.07;;;2.65;;
64342;SDS011;50675;53.530;-6.312;2023-05-10T01:00:01;8.32;;;2.45;;
64342;SDS011;50675;53.530;-6.312;2023-05-10T01:03:08;7.93;;;2.60;;
64342;SDS011;50675;53.530;-6.312;2023-05-10T01:17:40;10.85;;;2.65;;
64342;SDS011;50675;53.530;-6.312;2023-05-10T01:20:43;6.55;;;2.35;;
64342;SDS011;50675;53.530;-6.312;2023-05-10T01:28:07;8.82;;;2.55;;
64342;SDS011;50675;53.530;-6.312;2023-05-10T01:34:16;5.95;;;2.50;;
64342;SDS011;50675;53.530;-6.312;2023-05-10T01:40:39;9.18;;;2.20;;
64342;SDS011;50675;53.530;-6.312;2023-05-10T01:50:02;5.45;;;2.30;;
64342;SDS011;50675;53.530;-6.312;2023-05-10T01:53:07;9.65;;;2.55;;
64342;SDS011;50675;53.530;-6.312;2023-05-10T01:55:52;7.32;;;2.42;;
64342;SDS011;50675;53.530;-6.312;2023-05-10T01:58:27;5.05;;;2.30;;
64342;SDS011;50675;53.530;-6.312;2023-05-10T02:04:02;9.88;;;2.80;;
64342;SDS011;50675;53.530;-6.312;2023-05-10T02:06:39;13.63;;;3.25;;
64342;SDS011;50675;53.530;-6.312;2023-05-10T02:09:17;4.38;;;2.22;;
64342;SDS011;50675;53.530;-6.312;2023-05-10T02:14:47;6.57;;;2.53;;
64342;SDS011;50675;53.530;-6.312;2023-05-10T02:17:35;7.15;;;2.38;;
64342;SDS011;50675;53.530;-6.312;2023-05-10T02:20:58;7.57;;;2.45;;
64342;SDS011;50675;53.530;-6.312;2023-05-10T02:24:17;5.15;;;2.30;;
64342;SDS011;50675;53.530;-6.312;2023-05-10T02:27:30;7.75;;;2.03;;
64342;SDS011;50675;53.530;-6.312;2023-05-10T02:37:46;6.53;;;2.38;;
64342;SDS011;50675;53.530;-6.312;2023-05-10T02:40:30;5.95;;;1.80;;
64342;SDS011;50675;53.530;-6.312;2023-05-10T02:51:47;5.25;;;2.05;;
64342;SDS011;50675;53.530;-6.312;2023-05-10T02:55:42;6.55;;;2.58;;
64342;SDS011;50675;53.530;-6.312;2023-05-10T03:02:39;7.55;;;3.28;;
64342;SDS011;50675;53.530;-6.312;2023-05-10T03:05:25;5.97;;;2.45;;
64342;SDS011;50675;53.530;-6.312;2023-05-10T03:08:37;8.48;;;2.30;;
64342;SDS011;50675;53.530;-6.312;2023-05-10T03:18:41;8.38;;;2.08;;
64342;SDS011;50675;53.530;-6.312;2023-05-10T03:22:01;7.57;;;2.35;;
64342;SDS011;50675;53.530;-6.312;2023-05-10T03:25:22;6.25;;;2.45;;
64342;SDS011;50675;53.530;-6.312;2023-05-10T03:28:38;6.78;;;2.97;;
64342;SDS011;50675;53.530;-6.312;2023-05-10T03:36:25;6.22;;;2.38;;
64342;SDS011;50675;53.530;-6.312;2023-05-10T03:39:15;6.30;;;2.75;;
64342;SDS011;50675;53.530;-6.312;2023-05-10T03:41:50;7.38;;;2.33;;
64342;SDS011;50675;53.530;-6.312;2023-05-10T03:44:24;10.18;;;2.42;;
64342;SDS011;50675;53.530;-6.312;2023-05-10T03:46:52;7.60;;;2.38;;
64342;SDS011;50675;53.530;-6.312;2023-05-10T03:49:26;8.05;;;2.35;;
64342;SDS011;50675;53.530;-6.312;2023-05-10T03:52:40;6.68;;;2.38;;
64342;SDS011;50675;53.530;-6.312;2023-05-10T03:55:14;5.85;;;2.53;;
64342;SDS011;50675;53.530;-6.312;2023-05-10T04:02:11;5.03;;;2.00;;
64342;SDS011;50675;53.530;-6.312;2023-05-10T04:05:19;7.68;;;2.92;;
64342;SDS011;50675;53.530;-6.312;2023-05-10T04:10:19;5.57;;;2.15;;
64342;SDS011;50675;53.530;-6.312;2023-05-10T04:13:14;10.35;;;2.30;;
64342;SDS011;50675;53.530;-6.312;2023-05-10T04:15:46;6.05;;;2.10;;
64342;SDS011;50675;53.530;-6.312;2023-05-10T04:21:43;12.43;;;2.58;;
64342;SDS011;50675;53.530;-6.312;2023-05-10T04:24:25;7.32;;;2.38;;
64342;SDS011;50675;53.530;-6.312;2023-05-10T04:27:37;6.55;;;2.42;;
64342;SDS011;50675;53.530;-6.312;2023-05-10T04:40:13;9.93;;;2.85;;
64342;SDS011;50675;53.530;-6.312;2023-05-10T04:54:30;9.27;;;3.20;;
64342;SDS011;50675;53.530;-6.312;2023-05-10T04:57:07;7.07;;;2.78;;
64342;SDS011;50675;53.530;-6.312;2023-05-10T04:59:48;6.65;;;2.60;;
64342;SDS011;50675;53.530;-6.312;2023-05-10T05:06:34;4.70;;;2.13;;
64342;SDS011;50675;53.530;-6.312;2023-05-10T05:09:28;7.15;;;2.40;;
64342;SDS011;50675;53.530;-6.312;2023-05-10T05:12:26;5.28;;;2.50;;
64342;SDS011;50675;53.530;-6.312;2023-05-10T05:15:01;5.18;;;2.60;;
64342;SDS011;50675;53.530;-6.312;2023-05-10T05:17:52;6.70;;;2.70;;
64342;SDS011;50675;53.530;-6.312;2023-05-10T05:23:29;5.00;;;2.70;;
64342;SDS011;50675;53.530;-6.312;2023-05-10T05:25:56;4.38;;;2.53;;
64342;SDS011;50675;53.530;-6.312;2023-05-10T05:28:33;5.25;;;2.58;;
64342;SDS011;50675;53.530;-6.312;2023-05-10T05:31:05;4.38;;;2.25;;
64342;SDS011;50675;53.530;-6.312;2023-05-10T05:33:45;2.50;;;1.52;;
64342;SDS011;50675;53.530;-6.312;2023-05-10T05:39:14;2.50;;;1.20;;
64342;SDS011;50675;53.530;-6.312;2023-05-10T05:41:48;4.10;;;1.30;;
64342;SDS011;50675;53.530;-6.312;2023-05-10T05:44:17;2.13;;;1.15;;
64342;SDS011;50675;53.530;-6.312;2023-05-10T05:46:43;2.92;;;1.23;;
64342;SDS011;50675;53.530;-6.312;2023-05-10T05:49:12;5.63;;;1.42;;
64342;SDS011;50675;53.530;-6.312;2023-05-10T05:51:48;3.85;;;1.40;;
64342;SDS011;50675;53.530;-6.312;2023-05-10T05:54:21;1.73;;;0.93;;
64342;SDS011;50675;53.530;-6.312;2023-05-10T05:56:56;3.72;;;1.40;;
64342;SDS011;50675;53.530;-6.312;2023-05-10T05:59:26;6.28;;;1.67;;
64342;SDS011;50675;53.530;-6.312;2023-05-10T06:01:52;3.22;;;1.42;;
64342;SDS011;50675;53.530;-6.312;2023-05-10T06:04:18;4.50;;;1.05;;
64342;SDS011;50675;53.530;-6.312;2023-05-10T06:06:44;3.53;;;1.88;;
64342;SDS011;50675;53.530;-6.312;2023-05-10T06:09:10;4.32;;;1.50;;
64342;SDS011;50675;53.530;-6.312;2023-05-10T06:11:36;3.55;;;1.40;;
64342;SDS011;50675;53.530;-6.312;2023-05-10T06:14:02;6.70;;;1.55;;
64342;SDS011;50675;53.530;-6.312;2023-05-10T06:16:30;7.60;;;1.10;;
64342;SDS011;50675;53.530;-6.312;2023-05-10T06:18:56;3.60;;;1.10;;
64342;SDS011;50675;53.530;-6.312;2023-05-10T06:21:22;6.20;;;1.52;;
64342;SDS011;50675;53.530;-6.312;2023-05-10T06:23:48;3.40;;;1.05;;
64342;SDS011;50675;53.530;-6.312;2023-05-10T06:26:13;4.97;;;1.30;;
64342;SDS011;50675;53.530;-6.312;2023-05-10T06:28:39;7.22;;;1.65;;
64342;SDS011;50675;53.530;-6.312;2023-05-10T06:31:06;3.45;;;0.90;;
64342;SDS011;50675;53.530;-6.312;2023-05-10T06:33:32;4.00;;;1.40;;
64342;SDS011;50675;53.530;-6.312;2023-05-10T06:35:58;3.40;;;1.10;;
64342;SDS011;50675;53.530;-6.312;2023-05-10T06:38:24;4.53;;;1.05;;
64342;SDS011;50675;53.530;-6.312;2023-05-10T06:40:51;2.85;;;1.15;;
64342;SDS011;50675;53.530;-6.312;2023-05-10T06:43:16;4.28;;;1.10;;
64342;SDS011;50675;53.530;-6.312;2023-05-10T06:45:42;5.20;;;0.98;;
64342;SDS011;50675;53.530;-6.312;2023-05-10T06:48:08;5.22;;;1.05;;
64342;SDS011;50675;53.530;-6.312;2023-05-10T06:50:34;2.38;;;1.02;;
64342;SDS011;50675;53.530;-6.312;2023-05-10T06:53:00;4.57;;;1.00;;
64342;SDS011;50675;53.530;-6.312;2023-05-10T06:55:29;5.82;;;1.25;;
64342;SDS011;50675;53.530;-6.312;2023-05-10T06:57:55;7.45;;;1.60;;
64342;SDS011;50675;53.530;-6.312;2023-05-10T07:00:21;4.15;;;1.23;;
64342;SDS011;50675;53.530;-6.312;2023-05-10T07:02:47;3.85;;;1.13;;
64342;SDS011;50675;53.530;-6.312;2023-05-10T07:05:13;5.18;;;1.20;;
64342;SDS011;50675;53.530;-6.312;2023-05-10T07:07:39;2.15;;;0.73;;
64342;SDS011;50675;53.530;-6.312;2023-05-10T07:10:05;3.70;;;0.90;;
64342;SDS011;50675;53.530;-6.312;2023-05-10T07:12:32;4.40;;;0.93;;
64342;SDS011;50675;53.530;-6.312;2023-05-10T07:14:58;2.47;;;0.80;;
64342;SDS011;50675;53.530;-6.312;2023-05-10T07:17:23;3.75;;;1.00;;
64342;SDS011;50675;53.530;-6.312;2023-05-10T07:19:49;2.78;;;0.90;;
64342;SDS011;50675;53.530;-6.312;2023-05-10T07:25:30;7.95;;;1.40;;
64342;SDS011;50675;53.530;-6.312;2023-05-10T07:27:56;4.07;;;1.15;;
64342;SDS011;50675;53.530;-6.312;2023-05-10T07:30:22;2.92;;;0.80;;
64342;SDS011;50675;53.530;-6.312;2023-05-10T07:32:48;5.45;;;1.20;;
64342;SDS011;50675;53.530;-6.312;2023-05-10T07:35:14;0.93;;;0.73;;
64342;SDS011;50675;53.530;-6.312;2023-05-10T07:37:39;4.07;;;1.02;;
64342;SDS011;50675;53.530;-6.312;2023-05-10T07:40:05;2.65;;;0.88;;
64342;SDS011;50675;53.530;-6.312;2023-05-10T07:42:32;4.45;;;1.20;;
64342;SDS011;50675;53.530;-6.312;2023-05-10T07:44:58;1.63;;;0.85;;
64342;SDS011;50675;53.530;-6.312;2023-05-10T07:47:24;2.33;;;0.82;;
64342;SDS011;50675;53.530;-6.312;2023-05-10T07:49:50;3.72;;;0.90;;
64342;SDS011;50675;53.530;-6.312;2023-05-10T07:52:16;7.10;;;0.98;;
64342;SDS011;50675;53.530;-6.312;2023-05-10T07:54:41;7.75;;;1.15;;
64342;SDS011;50675;53.530;-6.312;2023-05-10T07:57:07;1.23;;;1.00;;
64342;SDS011;50675;53.530;-6.312;2023-05-10T07:59:33;1.95;;;0.50;;
64342;SDS011;50675;53.530;-6.312;2023-05-10T08:01:59;0.73;;;0.73;;
64342;SDS011;50675;53.530;-6.312;2023-05-10T08:04:25;4.03;;;1.58;;
64342;SDS011;50675;53.530;-6.312;2023-05-10T08:06:51;2.80;;;1.00;;
64342;SDS011;50675;53.530;-6.312;2023-05-10T08:09:17;2.45;;;0.80;;
64342;SDS011;50675;53.530;-6.312;2023-05-10T08:11:43;2.00;;;0.55;;
64342;SDS011;50675;53.530;-6.312;2023-05-10T08:14:08;2.35;;;0.63;;
64342;SDS011;50675;53.530;-6.312;2023-05-10T08:16:34;0.95;;;0.68;;
64342;SDS011;50675;53.530;-6.312;2023-05-10T08:19:00;1.75;;;1.15;;
64342;SDS011;50675;53.530;-6.312;2023-05-10T08:21:26;6.72;;;1.17;;
64342;SDS011;50675;53.530;-6.312;2023-05-10T08:23:51;3.63;;;1.23;;
64342;SDS011;50675;53.530;-6.312;2023-05-10T08:26:17;5.00;;;1.35;;
64342;SDS011;50675;53.530;-6.312;2023-05-10T08:28:43;4.03;;;0.80;;
64342;SDS011;50675;53.530;-6.312;2023-05-10T08:31:09;3.00;;;0.85;;
64342;SDS011;50675;53.530;-6.312;2023-05-10T08:33:34;0.90;;;0.52;;
64342;SDS011;50675;53.530;-6.312;2023-05-10T08:36:00;2.55;;;0.73;;
64342;SDS011;50675;53.530;-6.312;2023-05-10T08:38:26;2.92;;;0.75;;
64342;SDS011;50675;53.530;-6.312;2023-05-10T08:40:52;2.55;;;0.75;;
64342;SDS011;50675;53.530;-6.312;2023-05-10T08:43:21;2.38;;;0.70;;
64342;SDS011;50675;53.530;-6.312;2023-05-10T08:45:53;3.22;;;0.80;;
64342;SDS011;50675;53.530;-6.312;2023-05-10T08:48:20;1.73;;;0.60;;
64342;SDS011;50675;53.530;-6.312;2023-05-10T08:50:51;0.63;;;0.60;;
64342;SDS011;50675;53.530;-6.312;2023-05-10T08:53:19;3.53;;;0.98;;
64342;SDS011;50675;53.530;-6.312;2023-05-10T08:55:46;3.63;;;0.73;;
64342;SDS011;50675;53.530;-6.312;2023-05-10T08:58:12;3.47;;;0.77;;
64342;SDS011;50675;53.530;-6.312;2023-05-10T09:00:39;5.07;;;1.20;;
64342;SDS011;50675;53.530;-6.312;2023-05-10T09:03:05;2.00;;;0.70;;
64342;SDS011;50675;53.530;-6.312;2023-05-10T09:05:31;3.28;;;1.00;;
64342;SDS011;50675;53.530;-6.312;2023-05-10T09:07:57;1.40;;;0.50;;
64342;SDS011;50675;53.530;-6.312;2023-05-10T09:10:25;0.75;;;0.50;;
64342;SDS011;50675;53.530;-6.312;2023-05-10T09:12:53;1.85;;;0.57;;
64342;SDS011;50675;53.530;-6.312;2023-05-10T09:15:21;3.42;;;0.80;;
64342;SDS011;50675;53.530;-6.312;2023-05-10T09:17:47;1.70;;;0.70;;
64342;SDS011;50675;53.530;-6.312;2023-05-10T09:20:15;3.08;;;0.75;;
64342;SDS011;50675;53.530;-6.312;2023-05-10T09:22:42;1.60;;;0.60;;
64342;SDS011;50675;53.530;-6.312;2023-05-10T09:25:12;3.25;;;1.05;;
64342;SDS011;50675;53.530;-6.312;2023-05-10T09:27:40;1.63;;;0.50;;
64342;SDS011;50675;53.530;-6.312;2023-05-10T09:30:07;1.75;;;0.65;;
64342;SDS011;50675;53.530;-6.312;2023-05-10T09:32:37;2.30;;;0.57;;
64342;SDS011;50675;53.530;-6.312;2023-05-10T09:37:38;0.68;;;0.57;;
64342;SDS011;50675;53.530;-6.312;2023-05-10T09:40:07;1.92;;;0.90;;
64342;SDS011;50675;53.530;-6.312;2023-05-10T09:42:34;1.88;;;0.68;;
64342;SDS011;50675;53.530;-6.312;2023-05-10T09:45:02;1.02;;;0.60;;
64342;SDS011;50675;53.530;-6.312;2023-05-10T09:48:11;3.63;;;0.93;;
64342;SDS011;50675;53.530;-6.312;2023-05-10T09:51:21;1.63;;;0.55;;
64342;SDS011;50675;53.530;-6.312;2023-05-10T09:58:00;1.67;;;0.77;;
64342;SDS011;50675;53.530;-6.312;2023-05-10T10:02:59;1.35;;;0.88;;
64342;SDS011;50675;53.530;-6.312;2023-05-10T10:05:29;0.77;;;0.70;;
64342;SDS011;50675;53.530;-6.312;2023-05-10T10:07:56;2.90;;;0.98;;
64342;SDS011;50675;53.530;-6.312;2023-05-10T10:10:26;2.97;;;1.15;;
64342;SDS011;50675;53.530;-6.312;2023-05-10T10:12:52;2.35;;;1.05;;
64342;SDS011;50675;53.530;-6.312;2023-05-10T10:15:22;3.53;;;1.00;;
64342;SDS011;50675;53.530;-6.312;2023-05-10T10:17:49;3.22;;;1.45;;
64342;SDS011;50675;53.530;-6.312;2023-05-10T10:20:19;4.07;;;1.30;;
64342;SDS011;50675;53.530;-6.312;2023-05-10T10:22:46;1.80;;;0.73;;
64342;SDS011;50675;53.530;-6.312;2023-05-10T10:25:21;2.97;;;1.40;;
64342;SDS011;50675;53.530;-6.312;2023-05-10T10:36:20;2.13;;;1.20;;
64342;SDS011;50675;53.530;-6.312;2023-05-10T10:38:56;1.73;;;1.08;;
64342;SDS011;50675;53.530;-6.312;2023-05-10T10:50:22;1.92;;;1.00;;
64342;SDS011;50675;53.530;-6.312;2023-05-10T10:55:11;1.65;;;1.30;;
64342;SDS011;50675;53.530;-6.312;2023-05-10T10:57:50;1.88;;;0.90;;
64342;SDS011;50675;53.530;-6.312;2023-05-10T11:00:29;1.65;;;0.90;;
64342;SDS011;50675;53.530;-6.312;2023-05-10T11:07:58;3.38;;;1.40;;
64342;SDS011;50675;53.530;-6.312;2023-05-10T11:10:25;2.47;;;0.63;;
64342;SDS011;50675;53.530;-6.312;2023-05-10T11:15:35;3.30;;;0.82;;
64342;SDS011;50675;53.530;-6.312;2023-05-10T11:18:24;1.98;;;0.90;;
64342;SDS011;50675;53.530;-6.312;2023-05-10T11:20:57;4.10;;;1.27;;
64342;SDS011;50675;53.530;-6.312;2023-05-10T11:23:32;2.22;;;1.27;;
64342;SDS011;50675;53.530;-6.312;2023-05-10T11:26:13;1.75;;;1.20;;
64342;SDS011;50675;53.530;-6.312;2023-05-10T11:28:59;3.83;;;1.20;;
64342;SDS011;50675;53.530;-6.312;2023-05-10T11:31:27;2.72;;;1.30;;
64342;SDS011;50675;53.530;-6.312;2023-05-10T11:33:56;2.22;;;1.40;;
64342;SDS011;50675;53.530;-6.312;2023-05-10T11:36:24;2.67;;;1.40;;
64342;SDS011;50675;53.530;-6.312;2023-05-10T11:38:52;1.85;;;1.33;;
64342;SDS011;50675;53.530;-6.312;2023-05-10T11:41:22;2.00;;;1.33;;
64342;SDS011;50675;53.530;-6.312;2023-05-10T11:43:55;2.92;;;1.35;;
64342;SDS011;50675;53.530;-6.312;2023-05-10T11:46:22;3.35;;;1.38;;
64342;SDS011;50675;53.530;-6.312;2023-05-10T11:48:50;2.15;;;1.33;;
64342;SDS011;50675;53.530;-6.312;2023-05-10T11:51:24;2.67;;;1.52;;
64342;SDS011;50675;53.530;-6.312;2023-05-10T11:53:52;4.80;;;1.45;;
64342;SDS011;50675;53.530;-6.312;2023-05-10T11:56:19;1.67;;;1.10;;
64342;SDS011;50675;53.530;-6.312;2023-05-10T11:58:52;2.83;;;1.30;;
64342;SDS011;50675;53.530;-6.312;2023-05-10T12:03:45;3.65;;;1.17;;
64342;SDS011;50675;53.530;-6.312;2023-05-10T12:06:11;2.83;;;1.40;;
64342;SDS011;50675;53.530;-6.312;2023-05-10T12:08:43;4.45;;;1.40;;
64342;SDS011;50675;53.530;-6.312;2023-05-10T12:11:10;1.42;;;1.30;;
64342;SDS011;50675;53.530;-6.312;2023-05-10T12:14:09;1.75;;;1.17;;
64342;SDS011;50675;53.530;-6.312;2023-05-10T12:23:14;1.83;;;1.27;;
64342;SDS011;50675;53.530;-6.312;2023-05-10T12:26:05;2.13;;;1.58;;
64342;SDS011;50675;53.530;-6.312;2023-05-10T12:32:16;3.67;;;1.17;;
64342;SDS011;50675;53.530;-6.312;2023-05-10T12:34:57;3.35;;;0.98;;
64342;SDS011;50675;53.530;-6.312;2023-05-10T12:40:59;3.53;;;1.20;;
64342;SDS011;50675;53.530;-6.312;2023-05-10T12:43:26;1.33;;;1.00;;
64342;SDS011;50675;53.530;-6.312;2023-05-10T12:45:56;2.92;;;1.35;;
64342;SDS011;50675;53.530;-6.312;2023-05-10T12:48:31;1.77;;;1.10;;
64342;SDS011;50675;53.530;-6.312;2023-05-10T12:51:29;2.85;;;1.25;;
64342;SDS011;50675;53.530;-6.312;2023-05-10T12:57:57;1.23;;;0.57;;
64342;SDS011;50675;53.530;-6.312;2023-05-10T13:00:39;1.30;;;0.30;;
64342;SDS011;50675;53.530;-6.312;2023-05-10T13:15:46;1.30;;;0.50;;
64342;SDS011;50675;53.530;-6.312;2023-05-10T13:22:38;0.88;;;0.60;;
64342;SDS011;50675;53.530;-6.312;2023-05-10T13:25:40;1.58;;;0.70;;
64342;SDS011;50675;53.530;-6.312;2023-05-10T13:28:15;1.77;;;0.80;;
64342;SDS011;50675;53.530;-6.312;2023-05-10T13:31:11;2.08;;;1.02;;
64342;SDS011;50675;53.530;-6.312;2023-05-10T13:33:37;3.28;;;1.08;;
64342;SDS011;50675;53.530;-6.312;2023-05-10T13:36:03;2.67;;;1.20;;
64342;SDS011;50675;53.530;-6.312;2023-05-10T13:38:29;2.40;;;1.40;;
64342;SDS011;50675;53.530;-6.312;2023-05-10T13:40:54;8.52;;;1.90;;
64342;SDS011;50675;53.530;-6.312;2023-05-10T13:43:20;1.58;;;0.90;;
64342;SDS011;50675;53.530;-6.312;2023-05-10T13:45:46;1.98;;;1.00;;
64342;SDS011;50675;53.530;-6.312;2023-05-10T13:48:12;3.33;;;1.20;;
64342;SDS011;50675;53.530;-6.312;2023-05-10T13:50:38;4.45;;;1.55;;
64342;SDS011;50675;53.530;-6.312;2023-05-10T13:53:03;1.08;;;1.00;;
64342;SDS011;50675;53.530;-6.312;2023-05-10T13:55:30;1.77;;;1.00;;
64342;SDS011;50675;53.530;-6.312;2023-05-10T13:57:56;3.60;;;0.70;;
64342;SDS011;50675;53.530;-6.312;2023-05-10T14:00:21;1.13;;;0.68;;
64342;SDS011;50675;53.530;-6.312;2023-05-10T14:02:48;4.07;;;1.35;;
64342;SDS011;50675;53.530;-6.312;2023-05-10T14:05:14;11.40;;;1.40;;
64342;SDS011;50675;53.530;-6.312;2023-05-10T14:07:39;1.83;;;0.77;;
64342;SDS011;50675;53.530;-6.312;2023-05-10T14:10:06;2.35;;;0.88;;
64342;SDS011;50675;53.530;-6.312;2023-05-10T14:12:32;1.65;;;0.90;;
64342;SDS011;50675;53.530;-6.312;2023-05-10T14:14:58;1.80;;;0.90;;
64342;SDS011;50675;53.530;-6.312;2023-05-10T14:17:23;3.03;;;1.20;;
64342;SDS011;50675;53.530;-6.312;2023-05-10T14:19:49;0.95;;;0.90;;
64342;SDS011;50675;53.530;-6.312;2023-05-10T14:22:15;2.95;;;1.05;;
64342;SDS011;50675;53.530;-6.312;2023-05-10T14:24:41;2.15;;;0.90;;
64342;SDS011;50675;53.530;-6.312;2023-05-10T14:27:08;2.95;;;1.20;;
64342;SDS011;50675;53.530;-6.312;2023-05-10T14:29:34;4.32;;;1.50;;
64342;SDS011;50675;53.530;-6.312;2023-05-10T14:32:00;3.53;;;1.30;;
64342;SDS011;50675;53.530;-6.312;2023-05-10T14:34:26;4.63;;;1.80;;
64342;SDS011;50675;53.530;-6.312;2023-05-10T14:36:51;3.70;;;1.02;;
64342;SDS011;50675;53.530;-6.312;2023-05-10T14:39:17;2.85;;;1.20;;
64342;SDS011;50675;53.530;-6.312;2023-05-10T14:41:43;2.28;;;1.00;;
64342;SDS011;50675;53.530;-6.312;2023-05-10T14:44:11;2.55;;;1.13;;
64342;SDS011;50675;53.530;-6.312;2023-05-10T14:46:36;3.88;;;1.27;;
64342;SDS011;50675;53.530;-6.312;2023-05-10T14:49:02;1.80;;;1.10;;
64342;SDS011;50675;53.530;-6.312;2023-05-10T14:51:28;2.80;;;1.38;;
64342;SDS011;50675;53.530;-6.312;2023-05-10T14:53:54;3.65;;;1.10;;
64342;SDS011;50675;53.530;-6.312;2023-05-10T14:56:19;4.07;;;1.63;;
64342;SDS011;50675;53.530;-6.312;2023-05-10T14:58:46;3.20;;;1.20;;
64342;SDS011;50675;53.530;-6.312;2023-05-10T15:01:12;2.25;;;1.25;;
64342;SDS011;50675;53.530;-6.312;2023-05-10T15:03:37;6.10;;;3.03;;
64342;SDS011;50675;53.530;-6.312;2023-05-10T15:06:03;3.65;;;1.35;;
64342;SDS011;50675;53.530;-6.312;2023-05-10T15:08:29;2.17;;;1.55;;
64342;SDS011;50675;53.530;-6.312;2023-05-10T15:10:55;2.72;;;1.10;;
64342;SDS011;50675;53.530;-6.312;2023-05-10T15:13:21;2.70;;;1.10;;
64342;SDS011;50675;53.530;-6.312;2023-05-10T15:15:47;1.00;;;0.80;;
64342;SDS011;50675;53.530;-6.312;2023-05-10T15:18:13;2.33;;;0.70;;
64342;SDS011;50675;53.530;-6.312;2023-05-10T15:20:38;1.48;;;0.73;;
64342;SDS011;50675;53.530;-6.312;2023-05-10T15:23:04;1.25;;;1.00;;
64342;SDS011;50675;53.530;-6.312;2023-05-10T15:25:30;4.43;;;2.05;;
64342;SDS011;50675;53.530;-6.312;2023-05-10T15:27:56;1.75;;;1.23;;
64342;SDS011;50675;53.530;-6.312;2023-05-10T15:30:22;1.25;;;1.10;;
64342;SDS011;50675;53.530;-6.312;2023-05-10T15:32:47;3.63;;;1.80;;
64342;SDS011;50675;53.530;-6.312;2023-05-10T15:35:13;1.98;;;1.17;;
64342;SDS011;50675;53.530;-6.312;2023-05-10T15:37:39;2.58;;;1.50;;
64342;SDS011;50675;53.530;-6.312;2023-05-10T15:40:05;3.53;;;1.48;;
64342;SDS011;50675;53.530;-6.312;2023-05-10T15:42:31;2.20;;;1.35;;
64342;SDS011;50675;53.530;-6.312;2023-05-10T15:44:58;1.40;;;1.05;;
64342;SDS011;50675;53.530;-6.312;2023-05-10T15:47:24;3.75;;;1.52;;
64342;SDS011;50675;53.530;-6.312;2023-05-10T15:49:51;2.50;;;1.35;;
64342;SDS011;50675;53.530;-6.312;2023-05-10T15:52:17;2.60;;;1.42;;
64342;SDS011;50675;53.530;-6.312;2023-05-10T15:54:43;1.85;;;1.40;;
64342;SDS011;50675;53.530;-6.312;2023-05-10T15:57:09;3.53;;;1.60;;
64342;SDS011;50675;53.530;-6.312;2023-05-10T15:59:35;2.85;;;1.30;;
64342;SDS011;50675;53.530;-6.312;2023-05-10T16:02:00;3.03;;;1.33;;
64342;SDS011;50675;53.530;-6.312;2023-05-10T16:04:28;1.05;;;0.95;;
64342;SDS011;50675;53.530;-6.312;2023-05-10T16:06:54;3.58;;;1.45;;
64342;SDS011;50675;53.530;-6.312;2023-05-10T16:09:20;3.88;;;1.30;;
64342;SDS011;50675;53.530;-6.312;2023-05-10T16:11:46;2.60;;;1.63;;
64342;SDS011;50675;53.530;-6.312;2023-05-10T16:14:12;4.22;;;1.35;;
64342;SDS011;50675;53.530;-6.312;2023-05-10T16:16:38;3.63;;;1.50;;
64342;SDS011;50675;53.530;-6.312;2023-05-10T16:19:04;5.78;;;1.55;;
64342;SDS011;50675;53.530;-6.312;2023-05-10T16:21:30;4.97;;;1.50;;
64342;SDS011;50675;53.530;-6.312;2023-05-10T16:23:59;3.83;;;1.60;;
64342;SDS011;50675;53.530;-6.312;2023-05-10T16:26:25;4.32;;;1.52;;
64342;SDS011;50675;53.530;-6.312;2023-05-10T16:28:51;5.10;;;1.95;;
64342;SDS011;50675;53.530;-6.312;2023-05-10T16:31:17;4.13;;;1.50;;
64342;SDS011;50675;53.530;-6.312;2023-05-10T16:33:44;2.03;;;1.30;;
64342;SDS011;50675;53.530;-6.312;2023-05-10T16:36:10;3.05;;;1.52;;
64342;SDS011;50675;53.530;-6.312;2023-05-10T16:38:35;3.22;;;1.30;;
64342;SDS011;50675;53.530;-6.312;2023-05-10T16:41:01;3.97;;;1.30;;
64342;SDS011;50675;53.530;-6.312;2023-05-10T16:43:28;2.03;;;1.10;;
64342;SDS011;50675;53.530;-6.312;2023-05-10T16:45:55;2.47;;;1.17;;
64342;SDS011;50675;53.530;-6.312;2023-05-10T16:48:20;2.75;;;1.02;;
64342;SDS011;50675;53.530;-6.312;2023-05-10T16:50:46;4.07;;;1.13;;
64342;SDS011;50675;53.530;-6.312;2023-05-10T16:53:12;1.77;;;1.08;;
64342;SDS011;50675;53.530;-6.312;2023-05-10T16:55:38;3.50;;;1.05;;
64342;SDS011;50675;53.530;-6.312;2023-05-10T16:58:04;3.40;;;1.45;;
64342;SDS011;50675;53.530;-6.312;2023-05-10T17:00:30;2.22;;;1.27;;
64342;SDS011;50675;53.530;-6.312;2023-05-10T17:02:55;2.35;;;1.10;;
64342;SDS011;50675;53.530;-6.312;2023-05-10T17:05:21;1.85;;;0.82;;
64342;SDS011;50675;53.530;-6.312;2023-05-10T17:07:47;3.30;;;1.02;;
64342;SDS011;50675;53.530;-6.312;2023-05-10T17:10:13;3.45;;;1.08;;
64342;SDS011;50675;53.530;-6.312;2023-05-10T17:12:39;2.20;;;1.00;;
64342;SDS011;50675;53.530;-6.312;2023-05-10T17:15:05;3.17;;;0.93;;
64342;SDS011;50675;53.530;-6.312;2023-05-10T17:17:31;2.80;;;1.10;;
64342;SDS011;50675;53.530;-6.312;2023-05-10T17:19:57;3.38;;;1.08;;
64342;SDS011;50675;53.530;-6.312;2023-05-10T17:22:23;3.92;;;1.00;;
64342;SDS011;50675;53.530;-6.312;2023-05-10T17:24:49;3.45;;;1.15;;
64342;SDS011;50675;53.530;-6.312;2023-05-10T17:27:15;1.42;;;0.85;;
64342;SDS011;50675;53.530;-6.312;2023-05-10T17:29:42;0.85;;;0.63;;
64342;SDS011;50675;53.530;-6.312;2023-05-10T17:32:08;1.23;;;0.90;;
64342;SDS011;50675;53.530;-6.312;2023-05-10T17:34:37;6.53;;;1.20;;
64342;SDS011;50675;53.530;-6.312;2023-05-10T17:37:03;2.22;;;0.60;;
64342;SDS011;50675;53.530;-6.312;2023-05-10T17:39:29;1.90;;;0.77;;
64342;SDS011;50675;53.530;-6.312;2023-05-10T17:41:55;2.78;;;0.88;;
64342;SDS011;50675;53.530;-6.312;2023-05-10T17:44:21;1.98;;;0.98;;
64342;SDS011;50675;53.530;-6.312;2023-05-10T17:46:47;1.20;;;0.90;;
64342;SDS011;50675;53.530;-6.312;2023-05-10T17:49:13;2.47;;;0.98;;
64342;SDS011;50675;53.530;-6.312;2023-05-10T17:51:39;2.70;;;1.00;;
64342;SDS011;50675;53.530;-6.312;2023-05-10T17:54:08;1.23;;;0.80;;
64342;SDS011;50675;53.530;-6.312;2023-05-10T17:56:34;1.27;;;0.65;;
64342;SDS011;50675;53.530;-6.312;2023-05-10T17:58:59;0.45;;;0.45;;
64342;SDS011;50675;53.530;-6.312;2023-05-10T18:01:26;3.72;;;1.25;;
64342;SDS011;50675;53.530;-6.312;2023-05-10T18:03:51;1.50;;;0.80;;
64342;SDS011;50675;53.530;-6.312;2023-05-10T18:06:17;2.00;;;1.00;;
64342;SDS011;50675;53.530;-6.312;2023-05-10T18:08:43;4.22;;;1.00;;
64342;SDS011;50675;53.530;-6.312;2023-05-10T18:11:09;3.00;;;1.35;;
64342;SDS011;50675;53.530;-6.312;2023-05-10T18:13:35;3.58;;;1.48;;
64342;SDS011;50675;53.530;-6.312;2023-05-10T18:16:01;3.78;;;1.48;;
64342;SDS011;50675;53.530;-6.312;2023-05-10T18:18:29;2.53;;;1.30;;
64342;SDS011;50675;53.530;-6.312;2023-05-10T18:20:56;5.78;;;1.77;;
64342;SDS011;50675;53.530;-6.312;2023-05-10T18:23:23;1.48;;;1.00;;
64342;SDS011;50675;53.530;-6.312;2023-05-10T18:26:04;2.15;;;1.05;;
64342;SDS011;50675;53.530;-6.312;2023-05-10T18:28:32;2.72;;;1.05;;
64342;SDS011;50675;53.530;-6.312;2023-05-10T18:30:58;2.88;;;1.00;;
64342;SDS011;50675;53.530;-6.312;2023-05-10T18:33:24;1.85;;;0.90;;